หน้าหลัก
METAR-TAF:

METAR-TAF

ท่าอากาศยาน :

ฮากาตญา, กวม, สหรัฐอเมริกา

ละติจูด: 13-29N, ลองจิจูด: 144-48E, ความสูง: 91 ม.

การสังเกตสภาพอากาศปัจจุบัน

รายงานได้ทำขึ้นเมื่อ 20 นาทีที่แล้ว ณ เวลา 04:54 UTC
ลม 8 นอตจากตะวันออก/ตะวันออกเฉียงใต้
อุณหภูมิ 31°C
ความชื้น 71%
ความกดอากาศ 1011 hPa
ทัศนวิสัย: 16.1 กม.
มีเมฆกระจายเป็นบางส่วนที่ความสูง 1900 ฟุต
มีเมฆเป็นส่วนมากเว้นเป็นระยะที่ความสูง 2600 ฟุต
มีเมฆเป็นส่วนมากเว้นเป็นระยะที่ความสูง 4500 ฟุต

METAR: PGUM 130454Z 11008KT 10SM SCT019 BKN026 BKN045 31/25 A2985 RMK AO2 SLP100 T03060250

เวลา: 15:14 (05:14 UTC)

การพยากรณ์

รายงานได้ทำขึ้นเมื่อ 5 ชั่วโมงและ 42 นาทีที่แล้ว ณ เวลา 23:32 UTC
การพยากรณ์มีผลตั้งแต่วันที่ 13 ณ เวลา 00 UTC จนถึงวันที่ 14 ณ เวลา 06 UTC
ลม 14 นอตจากตะวันออก
ทัศนวิสัย: 10 กม.
มีเมฆกระจายเป็นบางส่วนที่ความสูง 2000 ฟุต
มีเมฆกระจายเป็นบางส่วนที่ความสูง 3500 ฟุต
มีเมฆเป็นส่วนมากเว้นเป็นระยะที่ความสูง 10000 ฟุต
การโปรยปรายในบริเวณใกล้เคียง,

TAF: PGUM 122332Z 1300/1406 09014KT P6SM VCSH SCT020 SCT035 BKN100

สังเกตการณ์สภาพอากาศและพยากรณ์อากาศของสนามบินมากกว่า 4000 แห่ง (รายงาน METAR และ TAF).

สถานีที่ดูได้จะแสดงไว้ด้วยจุดสีเหลืองและสีแดงบนแผนที่.

เลื่อนเมาส์ไปเหนือจุดเพื่อดูชื่อสถานี.

แล้วคลิกเพื่อดูสังเกตการณ์และการพยากรณ์สภาพอากาศ.

ในการเปลี่ยนแผนที่: คลิกที่ปุ่มสีเขียวที่มีกากบาทสีดำเพื่อซูมเข้า; ที่ปุ่มสีเขียวที่มีขีดเพื่อซูมออก; หรือที่ลูกศรสีเขียวเพื่อไปยังแผนที่ที่อยู่ติดกัน.


METAR-TAF: